Time;durP1;ratioP1;P1;durP2;ratioP2;P2;SDS_P1;SDS_P2;PMS_P1;PMS_P2;Temp;Humidity;BMP_temperature;BMP_pressure;BME280_temperature;BME280_humidity;BME280_pressure;Samples;Min_cycle;Max_cycle;Signal;HPM_P1;HPM_P2
2022/04/20 00:02:28;;;;;;;3.70;2.10;;;8.70;1.00;;;;;;7368455;19;20006;-63
2022/04/20 00:04:58;;;;;;;6.28;2.47;;;8.60;1.00;;;;;;7367795;19;20501;-62
2022/04/20 00:07:28;;;;;;;4.18;2.28;;;8.60;1.00;;;;;;7362576;19;20014;-62
2022/04/20 00:09:58;;;;;;;4.60;2.45;;;8.60;1.00;;;;;;7367747;19;19996;-63
2022/04/20 00:12:28;;;;;;;2.80;2.10;;;8.50;1.00;;;;;;7390342;19;20078;-63
2022/04/20 00:14:58;;;;;;;3.92;2.78;;;8.50;1.00;;;;;;7365456;19;20007;-63
2022/04/20 00:17:30;;;;;;;4.32;2.60;;;8.50;1.00;;;;;;7360337;19;20721;-62
2022/04/20 00:20:01;;;;;;;4.93;2.40;;;8.40;1.00;;;;;;7364635;19;20006;-63
2022/04/20 00:22:31;;;;;;;5.10;2.97;;;8.40;1.00;;;;;;7367837;19;20010;-63
2022/04/20 00:25:00;;;;;;;5.53;2.63;;;8.40;1.00;;;;;;7366494;19;20470;-63
2022/04/20 00:27:34;;;;;;;4.15;2.95;;;8.30;1.00;;;;;;7383530;19;20628;-62
2022/04/20 00:30:04;;;;;;;3.80;2.53;;;8.30;1.00;;;;;;7364830;19;20074;-63
2022/04/20 00:32:37;;;;;;;4.90;2.65;;;8.30;1.00;;;;;;7366186;19;20007;-62
2022/04/20 00:35:08;;;;;;;4.60;2.80;;;8.30;1.00;;;;;;7366968;19;20070;-62
2022/04/20 00:37:38;;;;;;;4.55;2.95;;;8.20;1.00;;;;;;7362594;19;20098;-63
2022/04/20 00:40:10;;;;;;;4.32;3.00;;;8.20;1.00;;;;;;7366933;19;20014;-62
2022/04/20 00:42:42;;;;;;;4.90;3.17;;;8.20;1.00;;;;;;7366599;19;20032;-63
2022/04/20 00:45:13;;;;;;;4.63;2.80;;;8.10;1.00;;;;;;7386420;19;20013;-63
2022/04/20 00:47:46;;;;;;;4.28;3.00;;;8.10;1.00;;;;;;7360508;19;20066;-63
2022/04/20 00:50:16;;;;;;;5.45;2.70;;;8.10;1.00;;;;;;7366416;19;20077;-63
2022/04/20 00:52:46;;;;;;;4.18;2.88;;;8.00;1.00;;;;;;7365443;19;20038;-63
2022/04/20 00:55:29;;;;;;;5.40;3.08;;;8.00;1.00;;;;;;7365280;19;20086;-63
2022/04/20 00:57:59;;;;;;;6.00;3.60;;;7.90;1.00;;;;;;7359042;19;20044;-63
2022/04/20 01:00:30;;;;;;;5.05;3.38;;;7.90;1.00;;;;;;7386605;19;20086;-64
2022/04/20 01:03:02;;;;;;;5.53;2.83;;;7.90;1.00;;;;;;7365123;19;20015;-63
2022/04/20 01:05:32;;;;;;;4.53;3.05;;;7.90;1.00;;;;;;7365777;19;20010;-63
2022/04/20 01:08:02;;;;;;;3.92;3.15;;;7.90;1.00;;;;;;7359475;19;20036;-64
2022/04/20 01:10:32;;;;;;;6.53;3.75;;;7.80;1.00;;;;;;7367201;19;20024;-63
2022/04/20 01:13:02;;;;;;;4.70;2.90;;;7.80;1.00;;;;;;7365338;19;20845;-64
2022/04/20 01:15:34;;;;;;;4.63;3.13;;;7.70;1.00;;;;;;7385616;19;20471;-64
2022/04/20 01:18:16;;;;;;;5.35;3.63;;;7.70;1.00;;;;;;7359625;19;20018;-63
2022/04/20 01:20:48;;;;;;;4.65;3.35;;;7.70;1.00;;;;;;7363564;19;20286;-63
2022/04/20 01:23:18;;;;;;;6.57;3.30;;;7.70;1.00;;;;;;7363899;19;20530;-64
2022/04/20 01:25:48;;;;;;;5.57;3.40;;;7.70;1.00;;;;;;7364162;19;20298;-63
2022/04/20 01:28:18;;;;;;;5.25;3.28;;;7.70;1.00;;;;;;7358983;19;20531;-64
2022/04/20 01:30:48;;;;;;;4.13;3.15;;;7.60;1.00;;;;;;7364284;19;20620;-63
2022/04/20 01:33:18;;;;;;;5.22;3.90;;;7.60;1.00;;;;;;7385975;19;20010;-64
2022/04/20 01:35:50;;;;;;;4.60;3.70;;;7.60;1.00;;;;;;7363967;19;20601;-63
2022/04/20 01:38:20;;;;;;;6.05;3.53;;;7.60;1.00;;;;;;7358644;19;20699;-63
2022/04/20 01:40:50;;;;;;;4.40;3.22;;;7.60;1.00;;;;;;7365718;19;20010;-63
2022/04/20 01:43:20;;;;;;;5.97;3.60;;;7.60;1.00;;;;;;7363776;19;20109;-63
2022/04/20 01:45:50;;;;;;;5.00;3.35;;;7.60;1.00;;;;;;7362981;19;20010;-62
2022/04/20 01:48:20;;;;;;;5.03;3.50;;;7.40;1.00;;;;;;7380465;19;20014;-62
2022/04/20 01:53:34;;;;;;;;;;;6.90;1.00;;;;;;7363454;19;20489;-62
2022/04/20 01:56:06;;;;;;;4.30;3.40;;;6.80;1.00;;;;;;7366010;19;19995;-62
2022/04/20 01:58:37;;;;;;;6.18;3.75;;;6.60;1.00;;;;;;7358302;19;20027;-63
2022/04/20 02:02:34;;;;;;;5.70;3.83;;;6.50;1.00;;;;;;7364522;19;20021;-63
2022/04/20 02:03:54;;;;;;;6.57;3.53;;;6.50;1.00;;;;;;7361852;19;20847;-63
2022/04/20 02:06:27;;;;;;;5.20;3.53;;;6.70;1.00;;;;;;7387791;19;20102;-63
2022/04/20 02:08:57;;;;;;;5.45;3.85;;;6.90;1.00;;;;;;7357396;19;20476;-63
2022/04/20 02:11:27;;;;;;;4.15;3.45;;;6.90;1.00;;;;;;7364207;19;20016;-63
2022/04/20 02:13:58;;;;;;;5.75;4.03;;;6.80;1.00;;;;;;7362492;19;20018;-63
2022/04/20 02:16:28;;;;;;;4.65;3.80;;;6.60;1.00;;;;;;7364502;19;20034;-62
2022/04/20 02:18:58;;;;;;;4.50;3.50;;;6.60;1.00;;;;;;7359652;19;20044;-63
2022/04/20 02:21:30;;;;;;;6.50;3.90;;;6.50;1.00;;;;;;7384537;19;20479;-64
2022/04/20 02:24:00;;;;;;;5.53;4.07;;;6.70;1.00;;;;;;7362741;19;20019;-63
2022/04/20 02:26:30;;;;;;;6.63;4.38;;;6.70;1.00;;;;;;7364189;19;20100;-64
2022/04/20 02:29:00;;;;;;;6.95;4.10;;;6.70;1.00;;;;;;7357790;19;20019;-63
2022/04/20 02:31:30;;;;;;;5.70;3.90;;;6.70;1.00;;;;;;7364736;19;20013;-63
2022/04/20 02:34:00;;;;;;;7.05;4.13;;;6.70;1.00;;;;;;7362114;19;20014;-64
2022/04/20 02:36:33;;;;;;;6.57;4.20;;;6.70;1.00;;;;;;7386894;19;20029;-64
2022/04/20 02:39:05;;;;;;;6.95;4.03;;;6.70;1.00;;;;;;7357769;19;20010;-63
2022/04/20 02:41:38;;;;;;;6.05;4.05;;;6.70;1.00;;;;;;7359915;19;20027;-63
2022/04/20 02:44:08;;;;;;;6.78;4.25;;;6.60;1.00;;;;;;7362344;19;20363;-64
2022/04/20 02:46:38;;;;;;;6.15;4.47;;;6.60;1.00;;;;;;7362675;19;20098;-64
2022/04/20 02:49:08;;;;;;;5.38;4.10;;;6.50;1.00;;;;;;7358324;19;20371;-64
2022/04/20 02:51:40;;;;;;;7.20;4.55;;;6.40;1.00;;;;;;7374558;19;20044;-64
2022/04/20 02:54:10;;;;;;;6.93;4.43;;;6.40;1.00;;;;;;7383519;19;20018;-64
2022/04/20 02:56:40;;;;;;;7.43;4.95;;;6.40;1.00;;;;;;7362008;19;20431;-63
2022/04/20 02:59:10;;;;;;;5.78;3.70;;;6.30;1.00;;;;;;7357552;19;20441;-64
2022/04/20 03:01:40;;;;;;;6.53;4.20;;;6.30;1.00;;;;;;7363505;19;20077;-64
2022/04/20 03:04:10;;;;;;;9.35;4.63;;;6.10;1.00;;;;;;7360934;19;20372;-63
2022/04/20 03:06:43;;;;;;;6.47;4.50;;;6.00;1.00;;;;;;7362180;19;20011;-63
2022/04/20 03:09:12;;;;;;;7.40;4.53;;;6.10;1.00;;;;;;7379407;19;20014;-63
2022/04/20 03:11:42;;;;;;;6.07;4.72;;;6.10;1.00;;;;;;7362415;19;20616;-63
2022/04/20 03:14:13;;;;;;;5.63;4.57;;;6.10;1.00;;;;;;7361258;19;20360;-63
2022/04/20 03:16:43;;;;;;;7.10;4.97;;;6.10;1.00;;;;;;7359580;19;20027;-63
2022/04/20 03:19:13;;;;;;;7.07;5.00;;;6.10;1.00;;;;;;7355520;19;20576;-62
2022/04/20 03:21:45;;;;;;;6.15;4.63;;;6.10;1.00;;;;;;7361743;19;20015;-63
2022/04/20 03:24:16;;;;;;;8.35;5.20;;;6.10;1.00;;;;;;7381506;19;20082;-62
2022/04/20 03:26:46;;;;;;;7.18;4.60;;;6.00;1.00;;;;;;7359146;19;20024;-64
2022/04/20 03:29:16;;;;;;;7.75;4.90;;;5.90;1.00;;;;;;7357013;19;20014;-63
2022/04/20 03:31:46;;;;;;;6.10;4.85;;;5.80;1.00;;;;;;7362067;19;20018;-63
2022/04/20 03:34:16;;;;;;;5.97;4.50;;;5.70;1.00;;;;;;7360270;19;20474;-63
2022/04/20 03:36:51;;;;;;;5.05;4.30;;;5.50;1.00;;;;;;7357668;19;20036;-63
2022/04/20 03:39:21;;;;;;;6.32;4.55;;;5.40;1.00;;;;;;7378692;19;20021;-62
2022/04/20 03:41:51;;;;;;;7.82;5.20;;;5.30;1.00;;;;;;7359872;19;20010;-63
2022/04/20 03:44:21;;;;;;;7.60;4.85;;;5.20;1.00;;;;;;7360567;19;20029;-63
2022/04/20 03:46:51;;;;;;;7.15;5.57;;;5.30;1.00;;;;;;7358822;19;20006;-63
2022/04/20 03:49:21;;;;;;;11.32;5.95;;;5.30;1.00;;;;;;7355969;19;20511;-62
2022/04/20 03:51:53;;;;;;;7.57;5.15;;;5.30;1.00;;;;;;7361826;19;20502;-63
2022/04/20 03:54:23;;;;;;;7.10;4.70;;;5.20;1.00;;;;;;7388486;19;20020;-62
2022/04/20 03:57:09;;;;;;;11.38;5.47;;;5.10;1.00;;;;;;7363367;19;20011;-62
2022/04/20 03:59:40;;;;;;;6.45;5.20;;;5.10;1.00;;;;;;7360387;19;20035;-62
2022/04/20 04:02:10;;;;;;;9.30;4.78;;;5.10;1.00;;;;;;7365668;19;20011;-62
2022/04/20 04:04:40;;;;;;;6.78;5.07;;;5.00;1.00;;;;;;7366421;19;20014;-62
2022/04/20 04:07:13;;;;;;;8.48;5.28;;;5.00;1.00;;;;;;7366771;19;20482;-62
2022/04/20 04:09:42;;;;;;;9.02;5.13;;;4.90;1.00;;;;;;7364174;19;20525;-63
2022/04/20 04:12:13;;;;;;;9.55;5.57;;;4.90;1.00;;;;;;7389832;19;20014;-62
2022/04/20 04:14:44;;;;;;;6.95;5.18;;;4.90;1.00;;;;;;7365107;19;20014;-62
2022/04/20 04:17:13;;;;;;;10.48;5.88;;;4.90;1.00;;;;;;7363581;19;20491;-61
2022/04/20 04:19:43;;;;;;;6.07;5.05;;;4.90;1.00;;;;;;7362873;19;20018;-62
2022/04/20 04:22:16;;;;;;;8.23;5.20;;;4.80;1.00;;;;;;7367292;19;20029;-62
2022/04/20 04:24:46;;;;;;;10.00;5.32;;;4.80;1.00;;;;;;7364126;19;20074;-62
2022/04/20 04:27:17;;;;;;;7.07;5.38;;;4.90;1.00;;;;;;7385370;19;20024;-62
2022/04/20 04:29:47;;;;;;;8.85;5.55;;;4.90;1.00;;;;;;7363647;19;20022;-61
2022/04/20 04:32:17;;;;;;;6.40;5.55;;;4.80;1.00;;;;;;7366769;19;20392;-61
2022/04/20 04:34:46;;;;;;;6.90;5.13;;;4.70;1.00;;;;;;7366307;19;20089;-63
2022/04/20 04:37:21;;;;;;;10.80;6.20;;;4.80;1.00;;;;;;7362943;19;20017;-62
2022/04/20 04:39:51;;;;;;;8.23;5.72;;;4.80;1.00;;;;;;7365308;19;20014;-62
2022/04/20 04:42:21;;;;;;;7.38;5.60;;;4.90;1.00;;;;;;7387965;19;20643;-61
2022/04/20 04:44:51;;;;;;;9.27;6.60;;;5.90;1.00;;;;;;7365167;19;20045;-63
2022/04/20 04:50:04;;;;;;;10.77;6.07;;;6.90;1.00;;;;;;7366297;19;20014;-62
2022/04/20 04:52:37;;;;;;;7.78;5.63;;;7.00;1.00;;;;;;7367301;19;20319;-61
2022/04/20 04:55:08;;;;;;;7.13;5.30;;;7.50;1.00;;;;;;7365220;19;20028;-61
2022/04/20 04:57:38;;;;;;;7.07;6.13;;;7.60;1.00;;;;;;7368736;19;20101;-62
2022/04/20 05:00:10;;;;;;;9.10;5.55;;;7.90;1.00;;;;;;7387793;19;20014;-60
2022/04/20 05:02:40;;;;;;;6.43;5.03;;;8.30;1.00;;;;;;7365199;19;20010;-63
2022/04/20 05:05:11;;;;;;;7.55;5.10;;;8.80;1.00;;;;;;7363755;19;20035;-63
2022/04/20 05:07:44;;;;;;;8.13;5.40;;;9.10;1.00;;;;;;7357240;19;20729;-63
2022/04/20 05:10:13;;;;;;;7.57;5.45;;;9.10;1.00;;;;;;7364865;19;20490;-62
2022/04/20 05:12:43;;;;;;;11.35;5.20;;;8.90;1.00;;;;;;7366103;19;20022;-62
2022/04/20 05:15:13;;;;;;;10.40;5.93;;;9.00;1.00;;;;;;7386981;19;20010;-63
2022/04/20 05:17:43;;;;;;;7.70;5.43;;;8.90;1.00;;;;;;7356948;19;20019;-62
2022/04/20 05:20:13;;;;;;;8.32;5.80;;;9.30;1.00;;;;;;7364732;19;20017;-62
2022/04/20 05:22:46;;;;;;;9.93;5.68;;;8.60;1.00;;;;;;7365933;19;20017;-62
2022/04/20 05:25:16;;;;;;;6.40;5.38;;;9.20;1.00;;;;;;7364117;19;20804;-62
2022/04/20 05:27:47;;;;;;;7.05;5.38;;;9.50;1.00;;;;;;7356998;19;20015;-62
2022/04/20 05:30:17;;;;;;;9.18;5.90;;;9.30;1.00;;;;;;7386495;19;20350;-61
2022/04/20 05:32:47;;;;;;;12.32;6.10;;;9.60;1.00;;;;;;7365650;19;20011;-61
2022/04/20 05:35:16;;;;;;;5.80;5.20;;;9.40;1.00;;;;;;7365219;19;20010;-63
2022/04/20 05:43:13;;;;;;;6.90;6.10;;;7.00;1.00;;;;;;7365070;19;20078;-63
2022/04/20 05:45:43;;;;;;;9.77;6.03;;;6.60;1.00;;;;;;7363231;19;20014;-63
2022/04/20 05:48:14;;;;;;;9.63;6.13;;;6.60;1.00;;;;;;7377358;19;20018;-62
2022/04/20 05:50:44;;;;;;;7.50;6.00;;;6.40;1.00;;;;;;7364091;19;20478;-63
2022/04/20 05:53:16;;;;;;;10.68;6.22;;;6.60;1.00;;;;;;7364393;19;20090;-63
2022/04/20 05:55:46;;;;;;;7.13;5.63;;;6.70;1.00;;;;;;7364010;19;20022;-62
2022/04/20 05:58:16;;;;;;;8.50;5.43;;;6.70;1.00;;;;;;7355947;19;20489;-63
2022/04/20 06:00:46;;;;;;;8.73;5.47;;;6.90;1.00;;;;;;7363930;19;20474;-63
2022/04/20 06:03:16;;;;;;;7.10;5.50;;;7.00;1.00;;;;;;7384878;19;20013;-62
2022/04/20 06:05:46;;;;;;;10.40;5.57;;;7.00;1.00;;;;;;7364163;19;20003;-61
2022/04/20 06:08:19;;;;;;;23.48;8.27;;;7.20;1.00;;;;;;7355345;19;20098;-62
2022/04/20 06:10:49;;;;;;;9.57;5.90;;;7.00;1.00;;;;;;7363985;19;20011;-61
2022/04/20 06:13:19;;;;;;;6.78;5.25;;;7.30;1.00;;;;;;7364511;19;20007;-63
2022/04/20 06:15:49;;;;;;;10.75;5.65;;;7.30;1.00;;;;;;7361837;19;20449;-62
2022/04/20 06:18:19;;;;;;;7.75;6.10;;;7.20;1.00;;;;;;7376928;19;20019;-62
2022/04/20 06:20:49;;;;;;;6.32;5.30;;;7.20;1.00;;;;;;7363277;19;20006;-62
2022/04/20 06:23:22;;;;;;;6.78;5.63;;;7.20;1.00;;;;;;7361757;19;20097;-61
2022/04/20 06:25:56;;;;;;;7.30;5.77;;;7.10;1.00;;;;;;7362223;19;20011;-62
2022/04/20 06:28:27;;;;;;;6.28;5.03;;;7.10;1.00;;;;;;7355679;19;20310;-62
2022/04/20 06:30:58;;;;;;;9.00;5.97;;;7.50;1.00;;;;;;7362637;19;20178;-62
2022/04/20 06:33:28;;;;;;;8.45;6.15;;;7.60;1.00;;;;;;7386029;19;20027;-62
2022/04/20 06:36:00;;;;;;;8.40;5.47;;;7.60;1.00;;;;;;7363408;19;20545;-63
2022/04/20 06:38:32;;;;;;;11.80;5.88;;;7.60;1.00;;;;;;7354896;19;20074;-63
2022/04/20 06:41:02;;;;;;;5.72;4.90;;;7.50;1.00;;;;;;7362958;19;20089;-63
2022/04/20 06:43:35;;;;;;;6.00;5.40;;;7.60;1.00;;;;;;7364471;19;20051;-63
2022/04/20 06:46:04;;;;;;;6.68;4.78;;;7.80;1.00;;;;;;7364195;19;20078;-62
2022/04/20 06:48:34;;;;;;;8.63;5.38;;;7.80;1.00;;;;;;7378744;19;20058;-61
2022/04/20 06:51:05;;;;;;;8.35;5.53;;;8.10;1.00;;;;;;7361775;19;20014;-62
2022/04/20 06:59:13;;;;;;;6.80;5.00;;;7.80;1.00;;;;;;7354822;19;20343;-64
2022/04/20 07:01:43;;;;;;;7.25;5.22;;;8.20;1.00;;;;;;7362821;19;20002;-62
2022/04/20 07:04:13;;;;;;;5.53;4.45;;;8.20;1.00;;;;;;7360293;19;20253;-62
2022/04/20 07:06:43;;;;;;;8.02;4.47;;;8.20;1.00;;;;;;7359041;19;20570;-63
2022/04/20 07:09:15;;;;;;;8.15;4.53;;;8.40;1.00;;;;;;7378365;19;20010;-62
2022/04/20 07:11:45;;;;;;;6.85;4.80;;;8.30;1.00;;;;;;7362177;19;20417;-63
2022/04/20 07:14:15;;;;;;;4.90;3.97;;;8.20;1.00;;;;;;7361320;19;20017;-63
2022/04/20 07:16:45;;;;;;;5.85;4.22;;;8.50;1.00;;;;;;7359243;19;20020;-60
2022/04/20 07:19:15;;;;;;;5.43;4.20;;;8.80;1.00;;;;;;7356122;19;20014;-62
2022/04/20 07:21:45;;;;;;;9.18;4.47;;;9.00;1.00;;;;;;7362085;19;20088;-63
2022/04/20 07:24:17;;;;;;;6.40;4.10;;;8.80;1.00;;;;;;7381987;19;20018;-63
2022/04/20 07:26:47;;;;;;;5.63;3.80;;;8.80;1.00;;;;;;7359090;19;20010;-62
2022/04/20 07:29:17;;;;;;;6.35;4.30;;;9.30;1.00;;;;;;7363804;19;20006;-64
2022/04/20 07:31:47;;;;;;;4.70;3.83;;;9.30;1.00;;;;;;7370412;19;20086;-63
2022/04/20 07:34:17;;;;;;;8.95;4.32;;;9.60;1.00;;;;;;7369330;19;20470;-61
2022/04/20 07:36:47;;;;;;;5.55;4.25;;;9.50;1.00;;;;;;7367107;19;20078;-63
2022/04/20 07:39:19;;;;;;;6.43;4.10;;;9.60;1.00;;;;;;7385049;19;20010;-63
2022/04/20 07:41:49;;;;;;;5.40;4.13;;;9.60;1.00;;;;;;7369866;19;20132;-64
2022/04/20 07:44:19;;;;;;;4.70;3.92;;;9.30;1.00;;;;;;7366981;19;20002;-63
2022/04/20 07:46:49;;;;;;;5.68;4.65;;;9.10;1.00;;;;;;7366737;19;20069;-63
2022/04/20 07:52:01;;;;;;;5.75;4.05;;;9.50;1.00;;;;;;7368296;19;20081;-61
2022/04/20 07:54:33;;;;;;;4.90;4.40;;;9.30;1.00;;;;;;7390446;19;20456;-62
2022/04/20 07:57:03;;;;;;;5.65;4.57;;;9.20;1.00;;;;;;7366370;19;21245;-63
2022/04/20 07:59:33;;;;;;;7.35;3.70;;;9.70;1.00;;;;;;7359674;19;20020;-63
2022/04/20 08:02:03;;;;;;;7.63;3.78;;;9.70;1.00;;;;;;7368669;19;20014;-64
2022/04/20 08:04:36;;;;;;;7.22;3.85;;;10.20;1.00;;;;;;7367418;19;20014;-63
2022/04/20 08:07:06;;;;;;;5.70;4.03;;;10.30;1.00;;;;;;7364774;19;20825;-64
2022/04/20 08:09:39;;;;;;;7.85;4.78;;;10.10;1.00;;;;;;7384189;19;20018;-63
2022/04/20 08:12:21;;;;;;;4.53;3.60;;;9.90;1.00;;;;;;7368159;19;20010;-63
2022/04/20 08:14:51;;;;;;;5.25;4.05;;;10.40;1.00;;;;;;7365050;19;20222;-63
2022/04/20 08:17:21;;;;;;;6.70;4.40;;;10.30;1.00;;;;;;7362803;19;20086;-62
2022/04/20 08:19:51;;;;;;;6.32;4.35;;;10.70;1.00;;;;;;7363260;19;20036;-62
2022/04/20 08:22:22;;;;;;;6.32;4.20;;;10.60;1.00;;;;;;7367079;19;20382;-63
2022/04/20 08:24:55;;;;;;;9.65;3.65;;;10.70;1.00;;;;;;7364801;19;20007;-62
2022/04/20 08:27:25;;;;;;;4.13;3.72;;;10.60;1.00;;;;;;7383899;19;20081;-64
2022/04/20 08:29:55;;;;;;;7.82;3.67;;;10.30;1.00;;;;;;7363543;19;20017;-61
2022/04/20 08:32:32;;;;;;;4.40;3.33;;;10.40;1.00;;;;;;7367461;19;20014;-62
2022/04/20 08:35:02;;;;;;;5.82;3.97;;;10.40;1.00;;;;;;7366520;19;20010;-62
2022/04/20 08:37:32;;;;;;;6.97;4.05;;;10.90;1.00;;;;;;7361931;19;20003;-62
2022/04/20 08:40:05;;;;;;;4.38;3.65;;;10.70;1.00;;;;;;7360156;19;20014;-62
2022/04/20 08:42:37;;;;;;;4.05;3.40;;;10.50;1.00;;;;;;7390075;19;20120;-62
2022/04/20 08:45:08;;;;;;;4.35;3.03;;;10.50;1.00;;;;;;7365112;19;20018;-62
2022/04/20 08:47:40;;;;;;;5.30;3.38;;;10.40;1.00;;;;;;7360799;19;20078;-63
2022/04/20 08:50:12;;;;;;;4.88;3.42;;;10.70;1.00;;;;;;7363055;19;20510;-62
2022/04/20 08:52:46;;;;;;;5.07;3.25;;;10.80;1.00;;;;;;7366670;19;20007;-63
2022/04/20 08:55:22;;;;;;;4.65;3.40;;;11.20;1.00;;;;;;7363739;19;20493;-63
2022/04/20 08:57:54;;;;;;;6.18;3.15;;;11.60;1.00;;;;;;7360665;19;20069;-62
2022/04/20 09:00:27;;;;;;;3.78;3.20;;;11.00;1.00;;;;;;7387018;19;20019;-61
2022/04/20 09:03:00;;;;;;;6.70;2.88;;;11.00;1.00;;;;;;7365707;19;20010;-62
2022/04/20 09:05:34;;;;;;;5.00;3.08;;;11.20;1.00;;;;;;7364787;19;20014;-62
2022/04/20 09:08:11;;;;;;;3.47;2.47;;;11.20;1.00;;;;;;7358492;19;20010;-62
2022/04/20 09:10:46;;;;;;;3.65;3.03;;;10.70;1.00;;;;;;7365378;19;20011;-62
2022/04/20 09:13:16;;;;;;;4.13;3.33;;;11.00;1.00;;;;;;7366456;19;20585;-62
2022/04/20 09:15:50;;;;;;;4.80;3.28;;;11.00;1.00;;;;;;7363544;19;20025;-63
2022/04/20 09:18:23;;;;;;;3.38;3.00;;;11.30;1.00;;;;;;7378517;19;20018;-62
2022/04/20 09:20:53;;;;;;;4.80;3.67;;;11.30;1.00;;;;;;7364852;19;20417;-63
2022/04/20 09:23:29;;;;;;;4.68;2.97;;;11.60;1.00;;;;;;7365266;19;21326;-62
2022/04/20 09:26:23;;;;;;;3.63;2.95;;;11.50;1.00;;;;;;7363947;19;20011;-64
2022/04/20 09:29:08;;;;;;;4.25;3.17;;;11.50;1.00;;;;;;7356167;19;20461;-62
2022/04/20 09:31:44;;;;;;;4.80;3.33;;;11.40;1.00;;;;;;7365637;19;20078;-63
2022/04/20 09:34:35;;;;;;;4.20;3.00;;;11.60;1.00;;;;;;7365256;19;20014;-63
2022/04/20 09:37:17;;;;;;;5.03;2.97;;;11.40;1.00;;;;;;7362291;19;20010;-61
2022/04/20 09:39:49;;;;;;;3.55;2.83;;;11.60;1.00;;;;;;7361653;19;20014;-63
2022/04/20 09:42:24;;;;;;;3.67;2.97;;;12.30;1.00;;;;;;7386305;19;20363;-62
2022/04/20 09:45:00;;;;;;;4.80;3.20;;;12.10;1.00;;;;;;7363149;19;20082;-63
2022/04/20 09:50:16;;;;;;;4.50;3.17;;;11.50;1.00;;;;;;7358528;19;20020;-63
2022/04/20 09:52:48;;;;;;;4.05;3.00;;;11.80;1.00;;;;;;7363063;19;20053;-63
2022/04/20 09:55:29;;;;;;;3.58;2.83;;;12.20;1.00;;;;;;7363489;19;20604;-62
2022/04/20 09:58:17;;;;;;;3.80;3.08;;;12.10;1.00;;;;;;7357354;19;20648;-62
2022/04/20 10:00:49;;;;;;;3.83;2.80;;;11.60;1.00;;;;;;7363383;19;20010;-63
2022/04/20 10:03:26;;;;;;;4.20;3.15;;;11.90;1.00;;;;;;7385861;19;20010;-62
2022/04/20 10:05:57;;;;;;;4.55;2.78;;;12.00;1.00;;;;;;7361816;19;20011;-62
2022/04/20 10:08:30;;;;;;;6.43;3.03;;;11.80;1.00;;;;;;7355560;19;20003;-64
2022/04/20 10:11:00;;;;;;;4.40;3.05;;;11.80;1.00;;;;;;7363950;19;20491;-62
2022/04/20 10:13:33;;;;;;;3.15;2.85;;;12.10;1.00;;;;;;7364266;19;20026;-62
2022/04/20 10:16:09;;;;;;;3.13;2.72;;;12.30;1.00;;;;;;7364106;19;20014;-62
2022/04/20 10:18:50;;;;;;;4.97;2.50;;;12.20;1.00;;;;;;7354303;19;20021;-62
2022/04/20 10:21:24;;;;;;;5.35;2.85;;;12.40;1.00;;;;;;7384228;19;20362;-62
2022/04/20 10:24:05;;;;;;;3.20;2.30;;;12.20;1.00;;;;;;7363429;19;20069;-63
2022/04/20 10:26:37;;;;;;;4.78;2.70;;;12.10;1.00;;;;;;7362003;19;20040;-61
2022/04/20 10:29:16;;;;;;;3.05;2.47;;;12.60;1.00;;;;;;7357953;19;20543;-62
2022/04/20 10:31:50;;;;;;;2.75;2.25;;;13.00;1.00;;;;;;7362504;19;20122;-62
2022/04/20 10:34:21;;;;;;;7.97;2.70;;;12.30;1.00;;;;;;7362785;19;20625;-62
2022/04/20 10:37:01;;;;;;;3.72;2.55;;;12.00;1.00;;;;;;7359536;19;20039;-64
2022/04/20 10:39:37;;;;;;;6.82;2.85;;;12.40;1.00;;;;;;7379273;19;20368;-63
2022/04/20 10:42:32;;;;;;;4.22;2.30;;;12.60;1.00;;;;;;7361665;19;20017;-64
2022/04/20 10:45:07;;;;;;;4.90;2.90;;;12.70;1.00;;;;;;7361695;19;20014;-64
2022/04/20 10:47:42;;;;;;;3.72;2.20;;;12.80;1.00;;;;;;7356594;19;20773;-63
2022/04/20 10:50:20;;;;;;;3.75;2.50;;;12.90;1.00;;;;;;7357566;19;20560;-62
2022/04/20 10:52:58;;;;;;;3.47;2.30;;;12.70;1.00;;;;;;7363054;19;20038;-63
2022/04/20 10:55:55;;;;;;;4.72;2.80;;;12.90;1.00;;;;;;7361749;19;20486;-63
2022/04/20 10:58:25;;;;;;;5.22;2.47;;;13.20;1.00;;;;;;7353382;19;20101;-63
2022/04/20 11:01:13;;;;;;;5.60;2.70;;;12.90;1.00;;;;;;7362988;19;20018;-62
2022/04/20 11:04:07;;;;;;;4.22;2.90;;;13.00;1.00;;;;;;7359569;19;20692;-62
2022/04/20 11:07:12;;;;;;;3.25;2.65;;;12.90;1.00;;;;;;7358460;19;20122;-62
2022/04/20 11:10:07;;;;;;;3.15;2.40;;;12.50;1.00;;;;;;7357565;19;20022;-62
2022/04/20 11:18:42;;;;;;;3.72;2.75;;;13.50;1.00;;;;;;7251514;19;2004328;-64
2022/04/20 11:21:19;;;;;;;5.03;2.55;;;13.60;1.00;;;;;;7383435;19;20027;-62
2022/04/20 11:24:01;;;;;;;3.75;2.50;;;13.80;1.00;;;;;;7361696;19;20057;-62
2022/04/20 11:26:34;;;;;;;3.42;2.70;;;13.60;1.00;;;;;;7360543;19;20024;-62
2022/04/20 11:29:10;;;;;;;3.97;2.55;;;13.50;1.00;;;;;;7355360;19;20110;-62
2022/04/20 11:31:42;;;;;;;3.80;2.67;;;13.50;1.00;;;;;;7359970;19;20043;-63
2022/04/20 11:34:18;;;;;;;3.08;2.70;;;13.30;1.00;;;;;;7360167;19;20500;-62
2022/04/20 11:36:53;;;;;;;4.38;2.97;;;13.60;1.00;;;;;;7359548;19;20027;-62
2022/04/20 11:39:24;;;;;;;6.28;3.42;;;13.40;1.00;;;;;;7377914;19;20010;-62
2022/04/20 11:41:56;;;;;;;4.07;3.17;;;13.50;1.00;;;;;;7361024;19;20038;-62
2022/04/20 11:44:27;;;;;;;3.75;2.83;;;13.70;1.00;;;;;;7358814;19;20103;-64
2022/04/20 11:47:01;;;;;;;3.65;2.97;;;13.40;1.00;;;;;;7358062;19;20086;-63
2022/04/20 11:49:39;;;;;;;4.35;2.80;;;13.30;1.00;;;;;;7354672;19;20021;-63
2022/04/20 11:52:11;;;;;;;4.35;3.40;;;13.60;1.00;;;;;;7360975;19;20098;-63
2022/04/20 11:54:43;;;;;;;7.32;3.60;;;13.70;1.00;;;;;;7358312;19;20018;-63
2022/04/20 11:57:13;;;;;;;3.95;3.28;;;13.90;1.00;;;;;;7380182;19;20037;-62
2022/04/20 11:59:46;;;;;;;4.50;3.30;;;14.00;1.00;;;;;;7356705;19;20022;-62
2022/04/20 12:02:18;;;;;;;4.23;3.63;;;14.50;1.00;;;;;;7360128;19;20910;-63
2022/04/20 12:05:07;;;;;;;4.75;3.10;;;14.60;1.00;;;;;;7360807;19;20797;-63
2022/04/20 12:07:37;;;;;;;4.30;3.28;;;14.00;1.00;;;;;;7356789;19;20011;-63
2022/04/20 12:10:08;;;;;;;5.90;3.47;;;14.30;1.00;;;;;;7357130;19;20025;-62
2022/04/20 12:12:38;;;;;;;4.93;3.35;;;14.10;1.00;;;;;;7370100;19;20073;-62
2022/04/20 12:15:10;;;;;;;4.22;3.40;;;13.70;1.00;;;;;;7387335;19;20009;-62
2022/04/20 12:17:41;;;;;;;4.07;3.10;;;13.90;1.00;;;;;;7363278;19;20041;-63
2022/04/20 12:20:14;;;;;;;4.28;3.50;;;14.20;1.00;;;;;;7364305;19;20015;-63
2022/04/20 12:22:44;;;;;;;6.15;3.70;;;14.50;1.00;;;;;;7367264;19;20010;-62
2022/04/20 12:25:19;;;;;;;4.13;3.72;;;14.40;1.00;;;;;;7366416;19;20010;-63
2022/04/20 12:27:53;;;;;;;3.85;3.45;;;14.00;1.00;;;;;;7363218;19;20093;-63
2022/04/20 12:30:44;;;;;;;4.03;3.20;;;14.10;1.00;;;;;;7387879;19;20019;-63
2022/04/20 12:33:23;;;;;;;3.20;2.58;;;14.50;1.00;;;;;;7368293;19;20015;-62
2022/04/20 12:36:08;;;;;;;3.45;2.88;;;14.30;1.00;;;;;;7367454;19;20011;-62
2022/04/20 12:38:44;;;;;;;;;;;14.50;1.00;;;;;;7359948;19;20745;-62
2022/04/20 12:41:44;;;;;;;3.92;2.90;;;13.90;1.00;;;;;;7364288;19;19925;-63
2022/04/20 12:44:39;;;;;;;3.25;2.95;;;14.20;1.00;;;;;;7365119;19;20006;-63
2022/04/20 12:47:24;;;;;;;;;;;14.40;1.00;;;;;;7364509;19;20455;-62
2022/04/20 12:50:18;;;;;;;3.58;3.13;;;14.80;1.00;;;;;;7363420;19;19925;-63
2022/04/20 12:52:56;;;;;;;2.88;2.47;;;14.70;1.00;;;;;;7367120;19;20002;-62
2022/04/20 12:55:35;;;;;;;4.07;2.50;;;14.70;1.00;;;;;;7363608;19;20114;-63
2022/04/20 13:03:39;;;;;;;6.60;3.30;;;14.40;1.00;;;;;;7379598;19;20078;-64
2022/04/20 13:06:11;;;;;;;4.57;2.70;;;14.40;1.00;;;;;;7387577;19;20888;-62
2022/04/20 13:08:45;;;;;;;2.75;2.47;;;14.40;1.00;;;;;;7357846;19;20039;-63
2022/04/20 13:11:18;;;;;;;3.97;2.63;;;14.50;1.00;;;;;;7363460;19;20031;-63
2022/04/20 13:14:08;;;;;;;4.72;3.00;;;14.90;1.00;;;;;;7363321;19;20014;-62
2022/04/20 13:16:40;;;;;;;5.30;2.58;;;14.80;1.00;;;;;;7364986;19;20014;-62
2022/04/20 13:19:10;;;;;;;5.10;2.50;;;14.90;1.00;;;;;;7359323;19;20015;-63
2022/04/20 13:21:42;;;;;;;3.40;2.58;;;14.90;1.00;;;;;;7364117;19;20104;-62
2022/04/20 13:27:53;;;;;;;3.28;2.10;;;15.10;1.00;;;;;;7386552;19;20014;-64
2022/04/20 13:29:48;;;;;;;2.20;1.90;;;15.30;1.00;;;;;;7361881;19;20007;-64
2022/04/20 13:32:18;;;;;;;6.28;2.30;;;15.30;1.00;;;;;;7364855;19;20030;-63
2022/04/20 13:34:48;;;;;;;3.85;2.40;;;14.80;1.00;;;;;;7365785;19;20010;-64
2022/04/20 13:37:18;;;;;;;5.78;2.45;;;15.00;1.00;;;;;;7361634;19;20011;-63
2022/04/20 13:39:53;;;;;;;2.63;2.08;;;15.20;1.00;;;;;;7361817;19;20018;-61
2022/04/20 13:42:23;;;;;;;2.83;2.33;;;15.10;1.00;;;;;;7387285;19;20086;-63
2022/04/20 13:44:53;;;;;;;3.22;2.50;;;15.20;1.00;;;;;;7364000;19;20471;-62
2022/04/20 13:47:23;;;;;;;3.65;2.63;;;15.30;1.00;;;;;;7359262;19;20013;-63
2022/04/20 13:49:54;;;;;;;3.83;2.70;;;15.30;1.00;;;;;;7360892;19;20083;-62
2022/04/20 13:52:24;;;;;;;3.53;2.55;;;15.20;1.00;;;;;;7363519;19;20130;-63
2022/04/20 13:54:57;;;;;;;4.32;2.35;;;15.30;1.00;;;;;;7361974;19;20020;-62
2022/04/20 13:57:28;;;;;;;3.72;2.55;;;15.20;1.00;;;;;;7380750;19;20026;-63
2022/04/20 13:59:58;;;;;;;2.65;2.22;;;14.90;1.00;;;;;;7360471;19;20674;-61
2022/04/20 14:02:28;;;;;;;3.33;2.60;;;15.00;1.00;;;;;;7362482;19;20010;-62
2022/04/20 14:04:58;;;;;;;5.45;2.28;;;15.20;1.00;;;;;;7362572;19;20386;-62
2022/04/20 14:07:28;;;;;;;5.57;2.50;;;15.40;1.00;;;;;;7358955;19;20010;-62
2022/04/20 14:10:00;;;;;;;3.42;2.40;;;15.30;1.00;;;;;;7359938;19;20029;-63